Time;durP1;ratioP1;P1;durP2;ratioP2;P2;SDS_P1;SDS_P2;PMS_P1;PMS_P2;Temp;Humidity;BMP_temperature;BMP_pressure;BME280_temperature;BME280_humidity;BME280_pressure;Samples;Min_cycle;Max_cycle;Signal;HPM_P1;HPM_P2
2023/10/09 00:01:13;;;;;;;6.28;4.90;;;;;;;;;;5026287;28;20433;-87
2023/10/09 00:03:44;;;;;;;5.47;4.97;;;;;;;;;;5009492;28;20049;-87
2023/10/09 00:06:15;;;;;;;6.43;4.93;;;;;;;;;;5007807;28;20053;-87
2023/10/09 00:08:50;;;;;;;8.30;5.93;;;;;;;;;;5023440;28;20045;-86
2023/10/09 00:11:18;;;;;;;6.22;5.55;;;;;;;;;;5007603;28;20069;-87
2023/10/09 00:13:48;;;;;;;6.03;5.38;;;;;;;;;;5011723;28;20491;-87
2023/10/09 00:16:20;;;;;;;6.10;5.50;;;;;;;;;;5007436;28;20049;-87
2023/10/09 00:18:50;;;;;;;8.23;5.55;;;;;;;;;;5009331;28;20046;-87
2023/10/09 00:21:20;;;;;;;7.05;5.63;;;;;;;;;;5008811;28;20077;-87
2023/10/09 00:23:53;;;;;;;6.53;5.57;;;;;;;;;;5011529;28;20061;-87
2023/10/09 00:26:20;;;;;;;7.60;5.60;;;;;;;;;;5007550;28;20057;-87
2023/10/09 00:28:50;;;;;;;9.45;6.18;;;;;;;;;;5009157;28;20060;-87
2023/10/09 00:31:33;;;;;;;10.60;5.65;;;;;;;;;;5006763;28;20049;-87
2023/10/09 00:34:01;;;;;;;6.50;5.95;;;;;;;;;;5023432;28;20487;-87
2023/10/09 00:36:29;;;;;;;8.57;6.10;;;;;;;;;;5005463;28;20053;-86
2023/10/09 00:39:00;;;;;;;7.68;6.45;;;;;;;;;;5005502;28;20084;-87
2023/10/09 00:41:29;;;;;;;9.00;5.90;;;;;;;;;;5008791;28;20049;-87
2023/10/09 00:43:59;;;;;;;13.40;5.90;;;;;;;;;;5008853;28;20049;-86
2023/10/09 00:46:27;;;;;;;7.72;5.18;;;;;;;;;;5008853;28;20147;-87
2023/10/09 00:48:56;;;;;;;10.95;6.03;;;;;;;;;;5008644;28;20115;-87
2023/10/09 00:51:24;;;;;;;11.10;6.30;;;;;;;;;;5005512;28;20058;-87
2023/10/09 00:54:06;;;;;;;7.88;6.63;;;;;;;;;;5008297;28;20638;-88
2023/10/09 00:56:39;;;;;;;9.98;6.80;;;;;;;;;;5005711;28;20050;-87
2023/10/09 00:59:08;;;;;;;10.02;6.15;;;;;;;;;;5008390;28;20045;-87
2023/10/09 01:01:39;;;;;;;9.90;6.72;;;;;;;;;;5011556;28;20525;-86
2023/10/09 01:04:17;;;;;;;9.18;7.63;;;;;;;;;;5005299;28;20396;-86
2023/10/09 01:06:47;;;;;;;11.85;6.93;;;;;;;;;;5011024;28;20111;-87
2023/10/09 01:09:19;;;;;;;14.73;6.97;;;;;;;;;;5014472;28;20410;-87
2023/10/09 01:14:26;;;;;;;9.05;6.63;;;;;;;;;;5030243;28;20061;-88
2023/10/09 01:16:54;;;;;;;6.93;5.43;;;;;;;;;;5028060;28;20049;-86
2023/10/09 01:19:24;;;;;;;7.95;5.75;;;;;;;;;;5007943;28;20050;-87
2023/10/09 01:21:52;;;;;;;12.05;5.97;;;;;;;;;;5008180;28;20049;-87
2023/10/09 01:24:19;;;;;;;11.35;6.78;;;;;;;;;;5023155;28;20077;-87
2023/10/09 01:26:49;;;;;;;10.15;6.00;;;;;;;;;;5007024;28;20046;-86
2023/10/09 01:29:20;;;;;;;8.70;6.25;;;;;;;;;;5007609;28;20053;-87
2023/10/09 01:32:00;;;;;;;9.25;5.88;;;;;;;;;;5007845;28;20378;-87
2023/10/09 01:37:18;;;;;;;11.05;6.75;;;;;;;;;;5033007;28;20051;-86
2023/10/09 01:39:48;;;;;;;23.67;13.10;;;;;;;;;;5010421;28;20494;-86
2023/10/09 01:42:33;;;;;;;15.07;9.43;;;;;;;;;;5005735;28;20046;-87
2023/10/09 01:45:11;;;;;;;29.73;12.75;;;;;;;;;;5007768;28;20054;-86
2023/10/09 01:47:38;;;;;;;23.92;11.45;;;;;;;;;;5008722;28;20061;-86
2023/10/09 01:50:12;;;;;;;26.38;11.88;;;;;;;;;;5024513;28;20049;-87
2023/10/09 01:52:39;;;;;;;21.58;10.35;;;;;;;;;;5021345;28;20046;-87
2023/10/09 01:55:15;;;;;;;15.20;9.00;;;;;;;;;;5009855;28;20049;-87
2023/10/09 01:57:44;;;;;;;17.38;8.95;;;;;;;;;;5007916;28;20057;-86
2023/10/09 02:00:16;;;;;;;17.92;8.85;;;;;;;;;;5023594;28;20053;-87
2023/10/09 02:02:45;;;;;;;12.60;7.43;;;;;;;;;;5006137;28;20418;-87
2023/10/09 02:07:58;;;;;;;14.18;6.95;;;;;;;;;;5024769;28;20052;-86
2023/10/09 02:10:31;;;;;;;17.05;8.20;;;;;;;;;;5018363;28;20089;-87
2023/10/09 02:13:12;;;;;;;16.02;8.00;;;;;;;;;;5003895;28;20054;-87
2023/10/09 02:21:00;;;;;;;18.48;8.52;;;;;;;;;;5024527;28;20409;-86
2023/10/09 02:26:32;;;;;;;17.87;7.93;;;;;;;;;;5024672;28;20049;-89
2023/10/09 02:29:03;;;;;;;17.85;8.43;;;;;;;;;;5018127;28;20053;-88
2023/10/09 02:31:40;;;;;;;15.38;7.22;;;;;;;;;;5007372;28;20483;-86
2023/10/09 02:34:08;;;;;;;15.43;8.05;;;;;;;;;;5025583;28;20141;-87
2023/10/09 02:36:41;;;;;;;17.33;7.70;;;;;;;;;;5028239;28;20571;-87
2023/10/09 02:39:22;;;;;;;12.15;7.75;;;;;;;;;;5018925;28;20041;-87
2023/10/09 02:41:54;;;;;;;16.75;8.07;;;;;;;;;;5010827;28;20049;-87
2023/10/09 02:44:25;;;;;;;19.73;9.88;;;;;;;;;;5025658;28;20085;-86
2023/10/09 02:46:57;;;;;;;11.95;8.43;;;;;;;;;;5024615;28;20464;-87
2023/10/09 02:49:27;;;;;;;15.60;9.43;;;;;;;;;;5010124;28;20057;-87
2023/10/09 02:51:54;;;;;;;22.75;9.75;;;;;;;;;;5010464;28;20045;-87
2023/10/09 02:56:56;;;;;;;14.18;9.13;;;;;;;;;;5027733;28;20045;-87
2023/10/09 02:59:24;;;;;;;14.48;8.50;;;;;;;;;;5007738;28;20053;-87
2023/10/09 03:01:52;;;;;;;16.67;9.10;;;;;;;;;;5006674;28;20057;-87
2023/10/09 03:04:23;;;;;;;13.95;8.93;;;;;;;;;;5026357;28;20049;-87
2023/10/09 03:06:51;;;;;;;16.52;9.40;;;;;;;;;;5018608;28;20136;-87
2023/10/09 03:09:26;;;;;;;15.05;9.00;;;;;;;;;;5010006;28;20081;-87
2023/10/09 03:12:05;;;;;;;15.35;8.02;;;;;;;;;;5018553;28;20060;-87
2023/10/09 03:14:35;;;;;;;17.83;9.20;;;;;;;;;;5024121;28;20545;-87
2023/10/09 03:17:03;;;;;;;16.45;9.23;;;;;;;;;;5032098;28;20091;-87
2023/10/09 03:19:33;;;;;;;17.77;9.32;;;;;;;;;;5023950;28;20049;-87
2023/10/09 03:22:01;;;;;;;21.38;10.20;;;;;;;;;;5031695;28;20046;-87
2023/10/09 03:24:30;;;;;;;19.48;9.60;;;;;;;;;;5017951;28;20057;-87
2023/10/09 03:26:58;;;;;;;15.82;9.85;;;;;;;;;;5027424;28;20099;-87
2023/10/09 03:29:27;;;;;;;12.55;9.60;;;;;;;;;;5006773;28;20104;-88
2023/10/09 03:31:56;;;;;;;15.35;9.77;;;;;;;;;;5030387;28;20049;-87
2023/10/09 03:34:24;;;;;;;19.00;9.90;;;;;;;;;;5007161;28;20057;-86
2023/10/09 03:37:03;;;;;;;20.77;10.02;;;;;;;;;;5006425;28;20506;-87
2023/10/09 03:39:47;;;;;;;16.13;10.38;;;;;;;;;;5013635;28;20108;-87
2023/10/09 03:42:20;;;;;;;17.42;10.98;;;;;;;;;;5013735;28;20414;-87
2023/10/09 03:44:53;;;;;;;15.82;10.05;;;;;;;;;;5018399;28;20160;-87
2023/10/09 03:47:22;;;;;;;15.00;10.10;;;;;;;;;;5009634;28;20054;-87
2023/10/09 03:49:53;;;;;;;17.60;10.15;;;;;;;;;;5009517;28;20049;-87
2023/10/09 03:52:25;;;;;;;17.52;10.45;;;;;;;;;;5024214;28;20107;-87
2023/10/09 03:54:54;;;;;;;13.18;10.40;;;;;;;;;;5023245;28;20107;-87
2023/10/09 03:57:23;;;;;;;21.80;13.95;;;;;;;;;;5025865;28;20046;-87
2023/10/09 03:59:51;;;;;;;18.38;13.77;;;;;;;;;;5009320;28;20081;-87
2023/10/09 04:02:22;;;;;;;23.13;15.38;;;;;;;;;;5024284;28;20099;-87
2023/10/09 04:04:50;;;;;;;26.63;13.32;;;;;;;;;;5023396;28;20050;-87
2023/10/09 04:07:17;;;;;;;26.35;12.93;;;;;;;;;;5024990;28;20060;-87
2023/10/09 04:09:48;;;;;;;20.10;11.55;;;;;;;;;;5034411;28;20077;-88
2023/10/09 04:12:24;;;;;;;20.30;12.35;;;;;;;;;;5007538;28;20056;-87
2023/10/09 04:14:57;;;;;;;21.75;11.52;;;;;;;;;;5006052;28;20392;-86
2023/10/09 04:17:34;;;;;;;19.87;12.53;;;;;;;;;;5016191;28;20045;-87
2023/10/09 04:22:59;;;;;;;;;;;;;;;;;;5023388;28;20552;-87
2023/10/09 04:25:29;;;;;;;39.08;22.15;;;;;;;;;;5008807;28;19990;-87
2023/10/09 04:28:19;;;;;;;68.25;43.35;;;;;;;;;;5009043;28;20559;-87
2023/10/09 04:30:55;;;;;;;50.83;34.80;;;;;;;;;;5022947;28;20108;-88
2023/10/09 04:33:40;;;;;;;26.88;19.63;;;;;;;;;;5008330;28;20077;-87
2023/10/09 04:44:24;;;;;;;32.53;19.67;;;;;;;;;;5023163;28;20061;-87
2023/10/09 04:57:45;;;;;;;31.52;18.77;;;;;;;;;;5026514;28;20478;-86
2023/10/09 05:03:29;;;;;;;30.55;17.50;;;;;;;;;;5025699;28;20079;-87
2023/10/09 05:05:48;;;;;;;29.45;17.48;;;;;;;;;;5017018;28;20085;-87
2023/10/09 05:16:18;;;;;;;50.42;22.77;;;;;;;;;;5024845;28;20046;-87
2023/10/09 05:18:55;;;;;;;44.38;20.48;;;;;;;;;;5004826;28;20050;-87
2023/10/09 05:32:15;;;;;;;49.33;25.88;;;;;;;;;;5025470;28;20045;-88
2023/10/09 05:35:19;;;;;;;43.70;21.50;;;;;;;;;;5010000;28;20049;-87
2023/10/09 05:37:43;;;;;;;38.13;18.60;;;;;;;;;;5023686;28;20080;-87
2023/10/09 05:42:44;;;;;;;29.50;16.58;;;;;;;;;;5025493;28;19921;-87
2023/10/09 05:48:07;;;;;;;26.38;14.70;;;;;;;;;;5025180;28;20045;-87
2023/10/09 05:50:36;;;;;;;26.85;14.57;;;;;;;;;;5021582;28;20045;-87
2023/10/09 05:53:09;;;;;;;26.20;12.57;;;;;;;;;;5029837;28;20461;-87
2023/10/09 05:57:00;;;;;;;22.95;12.95;;;;;;;;;;5011580;28;20052;-87
2023/10/09 06:04:17;;;;;;;30.05;15.05;;;;;;;;;;5030280;28;20055;-87
2023/10/09 06:06:46;;;;;;;24.65;13.85;;;;;;;;;;5033699;28;20115;-87
2023/10/09 06:11:49;;;;;;;35.33;15.25;;;;;;;;;;5028069;28;20045;-87
2023/10/09 06:15:18;;;;;;;24.63;13.98;;;;;;;;;;5012520;28;20145;-87
2023/10/09 06:17:23;;;;;;;26.48;13.40;;;;;;;;;;5014543;28;20081;-87
2023/10/09 06:19:58;;;;;;;18.27;12.50;;;;;;;;;;5014429;28;20128;-87
2023/10/09 06:25:12;;;;;;;37.58;16.52;;;;;;;;;;5037057;28;20430;-87
2023/10/09 06:30:26;;;;;;;38.40;17.40;;;;;;;;;;5039502;28;20049;-87
2023/10/09 06:33:19;;;;;;;33.15;14.45;;;;;;;;;;5013888;28;20055;-87
2023/10/09 06:35:53;;;;;;;31.08;15.30;;;;;;;;;;5010940;28;20054;-87
2023/10/09 06:38:33;;;;;;;25.38;13.88;;;;;;;;;;5018597;28;20077;-87
2023/10/09 06:43:36;;;;;;;35.13;14.98;;;;;;;;;;5032292;28;20057;-86
2023/10/09 06:46:43;;;;;;;32.33;15.75;;;;;;;;;;5031960;28;20104;-87
2023/10/09 06:49:28;;;;;;;28.02;13.05;;;;;;;;;;5028361;28;20050;-86
2023/10/09 06:52:13;;;;;;;27.80;13.52;;;;;;;;;;5021612;28;20390;-86
2023/10/09 06:54:49;;;;;;;29.33;13.55;;;;;;;;;;5018434;28;20056;-87
2023/10/09 06:57:43;;;;;;;34.15;15.60;;;;;;;;;;5029263;28;20077;-87
2023/10/09 07:02:53;;;;;;;27.80;14.07;;;;;;;;;;5033720;28;20057;-87
2023/10/09 07:05:20;;;;;;;26.88;14.60;;;;;;;;;;5019629;28;20126;-86
2023/10/09 07:07:54;;;;;;;22.67;11.43;;;;;;;;;;5010481;28;20065;-86
2023/10/09 07:10:28;;;;;;;37.50;15.55;;;;;;;;;;5019651;28;20417;-87
2023/10/09 07:12:57;;;;;;;25.15;12.68;;;;;;;;;;5013665;28;20051;-86
2023/10/09 07:18:23;;;;;;;18.67;10.93;;;;;;;;;;4995829;28;20379;-86
2023/10/09 07:21:01;;;;;;;20.20;12.23;;;;;;;;;;5010070;28;20046;-86
2023/10/09 07:23:32;;;;;;;21.58;11.45;;;;;;;;;;5010164;28;20060;-86
2023/10/09 07:26:25;;;;;;;21.75;11.52;;;;;;;;;;5018240;28;20049;-86
2023/10/09 07:29:01;;;;;;;30.83;14.20;;;;;;;;;;5013058;28;20049;-85
2023/10/09 07:31:39;;;;;;;23.55;12.15;;;;;;;;;;5023612;28;20054;-85
2023/10/09 07:34:30;;;;;;;23.23;12.55;;;;;;;;;;5006903;28;20126;-86
2023/10/09 07:36:56;;;;;;;21.85;12.80;;;;;;;;;;5027113;28;20084;-85
2023/10/09 07:39:34;;;;;;;16.85;11.18;;;;;;;;;;5007120;28;20049;-86
2023/10/09 07:42:15;;;;;;;19.50;10.05;;;;;;;;;;5006075;28;20509;-86
2023/10/09 07:44:46;;;;;;;14.65;9.80;;;;;;;;;;5023811;28;20057;-86
2023/10/09 07:47:17;;;;;;;18.38;11.57;;;;;;;;;;5013405;28;20465;-86
2023/10/09 07:49:51;;;;;;;19.77;10.73;;;;;;;;;;5030002;28;20050;-86
2023/10/09 07:52:21;;;;;;;13.80;9.43;;;;;;;;;;5007922;28;20061;-86
2023/10/09 07:55:02;;;;;;;14.77;8.68;;;;;;;;;;5017877;28;20129;-86
2023/10/09 07:57:38;;;;;;;11.85;8.63;;;;;;;;;;5014224;28;20406;-86
2023/10/09 08:00:35;;;;;;;20.52;10.45;;;;;;;;;;5031785;28;20418;-86
2023/10/09 08:03:00;;;;;;;18.10;10.20;;;;;;;;;;5034821;28;20046;-86
2023/10/09 08:05:33;;;;;;;17.63;10.43;;;;;;;;;;5034574;28;20723;-86
2023/10/09 08:13:56;;;;;;;18.65;11.10;;;;;;;;;;5023118;28;20046;-86
2023/10/09 08:16:25;;;;;;;17.65;11.95;;;;;;;;;;5016338;28;20135;-86
2023/10/09 08:19:20;;;;;;;17.13;11.93;;;;;;;;;;5027011;28;20081;-86
2023/10/09 08:22:17;;;;;;;20.08;10.73;;;;;;;;;;5011394;28;20104;-86
2023/10/09 08:24:41;;;;;;;20.98;11.38;;;;;;;;;;5022820;28;20457;-85
2023/10/09 08:33:03;;;;;;;34.83;19.88;;;;;;;;;;5006906;28;20050;-85
2023/10/09 08:35:46;;;;;;;34.08;21.90;;;;;;;;;;5026929;28;20115;-86
2023/10/09 08:38:14;;;;;;;34.28;21.42;;;;;;;;;;5008637;28;20494;-86
2023/10/09 08:40:43;;;;;;;28.08;20.23;;;;;;;;;;5008699;28;20064;-86
2023/10/09 08:43:12;;;;;;;21.10;14.00;;;;;;;;;;5016594;28;20057;-87
2023/10/09 08:45:40;;;;;;;16.30;12.98;;;;;;;;;;5029344;28;20077;-86
2023/10/09 08:48:08;;;;;;;14.45;11.07;;;;;;;;;;5031043;28;20041;-87
2023/10/09 08:50:40;;;;;;;12.57;8.88;;;;;;;;;;5009012;28;20144;-87
2023/10/09 08:53:09;;;;;;;14.13;9.23;;;;;;;;;;5025347;28;20509;-87
2023/10/09 08:55:38;;;;;;;13.40;10.30;;;;;;;;;;5004993;28;20081;-86
2023/10/09 08:58:13;;;;;;;17.13;11.18;;;;;;;;;;5009948;28;20478;-86
2023/10/09 09:00:45;;;;;;;15.23;10.32;;;;;;;;;;5007942;28;20050;-87
2023/10/09 09:03:18;;;;;;;15.93;10.68;;;;;;;;;;5008074;28;20072;-87
2023/10/09 09:05:49;;;;;;;14.10;9.15;;;;;;;;;;5028347;28;20086;-87
2023/10/09 09:08:25;;;;;;;12.45;9.23;;;;;;;;;;5006687;28;20426;-86
2023/10/09 09:11:11;;;;;;;11.23;8.18;;;;;;;;;;5009985;28;20108;-87
2023/10/09 09:13:41;;;;;;;11.05;8.32;;;;;;;;;;5004900;28;20494;-87
2023/10/09 09:16:17;;;;;;;11.77;8.70;;;;;;;;;;5008247;28;20054;-86
2023/10/09 09:19:03;;;;;;;25.67;17.55;;;;;;;;;;5025718;28;20049;-86
2023/10/09 09:21:37;;;;;;;13.68;10.70;;;;;;;;;;5004640;28;20470;-87
2023/10/09 09:24:15;;;;;;;;;;;;;;;;;;5013148;28;20049;-88
2023/10/09 09:26:46;;;;;;;21.38;15.98;;;;;;;;;;5027283;28;19961;-89
2023/10/09 09:29:17;;;;;;;21.58;15.48;;;;;;;;;;5006932;28;20111;-90
2023/10/09 09:31:52;;;;;;;65.75;37.28;;;;;;;;;;5010277;28;20056;-91
2023/10/09 09:34:25;;;;;;;27.30;18.48;;;;;;;;;;5025176;28;20081;-93
2023/10/09 09:36:54;;;;;;;20.55;12.27;;;;;;;;;;5026995;28;20064;-93
2023/10/09 09:39:27;;;;;;;17.55;12.60;;;;;;;;;;5005844;28;20096;-93
2023/10/09 09:42:13;;;;;;;23.80;12.52;;;;;;;;;;5012840;28;20045;-95
2023/10/09 09:44:45;;;;;;;148.25;53.20;;;;;;;;;;5011426;28;20049;-93
2023/10/09 09:47:16;;;;;;;139.00;55.60;;;;;;;;;;5019199;28;20123;-94
2023/10/09 09:49:44;;;;;;;66.10;28.73;;;;;;;;;;5026004;28;20050;-93
2023/10/09 09:52:11;;;;;;;43.30;19.40;;;;;;;;;;5007390;28;20137;-95
2023/10/09 09:54:39;;;;;;;126.72;70.60;;;;;;;;;;5011342;28;20046;-94
2023/10/09 09:57:12;;;;;;;84.53;45.55;;;;;;;;;;5004840;28;20077;-95
2023/10/09 09:59:55;;;;;;;38.53;18.92;;;;;;;;;;5016238;28;20096;-94
2023/10/09 10:02:29;;;;;;;20.98;11.50;;;;;;;;;;5005263;28;20057;-94
2023/10/09 10:04:58;;;;;;;14.10;9.02;;;;;;;;;;5005413;28;20085;-94
2023/10/09 10:07:30;;;;;;;12.15;7.80;;;;;;;;;;5007346;28;20053;-95
2023/10/09 10:09:57;;;;;;;18.77;10.23;;;;;;;;;;5009848;28;20482;-95
2023/10/09 10:12:46;;;;;;;14.65;9.02;;;;;;;;;;5021941;28;20057;-95
2023/10/09 10:15:16;;;;;;;16.67;8.15;;;;;;;;;;5007846;28;20553;-96
2023/10/09 10:17:59;;;;;;;14.95;7.47;;;;;;;;;;5018955;28;20045;-95
2023/10/09 10:20:31;;;;;;;13.40;7.17;;;;;;;;;;5016306;28;20486;-96
2023/10/09 10:23:18;;;;;;;13.95;8.80;;;;;;;;;;5008328;28;20304;-95
2023/10/09 10:25:49;;;;;;;21.77;9.88;;;;;;;;;;5011218;28;20445;-95
2023/10/09 10:28:28;;;;;;;21.02;8.85;;;;;;;;;;5011740;28;20059;-96
2023/10/09 10:31:00;;;;;;;14.57;9.85;;;;;;;;;;5005131;28;20054;-95
2023/10/09 10:33:28;;;;;;;11.48;8.18;;;;;;;;;;5008641;28;20576;-96
2023/10/09 10:35:57;;;;;;;14.88;8.02;;;;;;;;;;5007850;28;20146;-95
2023/10/09 10:38:42;;;;;;;;;;;;;;;;;;5017385;28;20538;-96
2023/10/09 10:41:13;;;;;;;11.38;7.07;;;;;;;;;;5007974;28;19925;-95
2023/10/09 10:43:59;;;;;;;10.38;7.13;;;;;;;;;;5006919;28;20053;-95
2023/10/09 10:46:44;;;;;;;9.80;6.43;;;;;;;;;;5008198;28;20050;-95
2023/10/09 10:49:15;;;;;;;13.63;7.20;;;;;;;;;;5014925;28;20049;-95
2023/10/09 10:51:49;;;;;;;9.40;6.47;;;;;;;;;;5021688;28;20072;-95
2023/10/09 10:54:45;;;;;;;;;;;;;;;;;;5013154;28;20049;-95
2023/10/09 10:57:19;;;;;;;11.57;6.95;;;;;;;;;;5004769;28;19921;-96
2023/10/09 11:01:00;;;;;;;11.05;6.88;;;;;;;;;;5014324;28;20144;-96
2023/10/09 11:03:13;;;;;;;12.27;6.78;;;;;;;;;;5037507;28;20391;-95
2023/10/09 11:05:50;;;;;;;12.18;7.60;;;;;;;;;;5036157;28;20107;-96
2023/10/09 11:08:22;;;;;;;7.97;6.88;;;;;;;;;;5015227;28;20053;-95
2023/10/09 11:10:50;;;;;;;10.13;6.90;;;;;;;;;;5030813;28;20065;-96
2023/10/09 11:13:33;;;;;;;12.30;7.85;;;;;;;;;;5028341;28;20080;-96
2023/10/09 11:16:24;;;;;;;8.00;6.93;;;;;;;;;;5024488;28;20059;-95
2023/10/09 11:18:51;;;;;;;9.60;6.65;;;;;;;;;;5014405;28;20056;-96
2023/10/09 11:21:32;;;;;;;10.27;6.93;;;;;;;;;;5046192;28;20112;-95
2023/10/09 11:24:24;;;;;;;12.50;7.53;;;;;;;;;;5032794;28;20053;-94
2023/10/09 11:26:55;;;;;;;11.68;7.03;;;;;;;;;;5044989;28;20053;-95
2023/10/09 11:32:19;;;;;;;10.02;7.38;;;;;;;;;;5021578;28;20049;-96
2023/10/09 11:35:09;;;;;;;11.80;6.95;;;;;;;;;;5033694;28;20096;-96
2023/10/09 11:37:39;;;;;;;11.77;7.03;;;;;;;;;;5040286;28;20050;-96
2023/10/09 11:42:48;;;;;;;12.55;7.95;;;;;;;;;;5054025;22;20414;-86
2023/10/09 11:45:25;;;;;;;8.75;6.53;;;;;;;;;;5029966;28;20103;-86
2023/10/09 11:48:00;;;;;;;8.02;6.85;;;;;;;;;;5032002;28;20529;-86
2023/10/09 11:50:51;;;;;;;14.20;7.18;;;;;;;;;;5029821;28;20395;-85
2023/10/09 11:55:49;;;;;;;10.18;6.03;;;;;;;;;;5046468;28;20049;-85
2023/10/09 11:58:22;;;;;;;11.25;5.70;;;;;;;;;;5043401;28;20491;-86
2023/10/09 12:01:03;;;;;;;9.73;6.03;;;;;;;;;;5019278;28;20051;-85
2023/10/09 12:03:31;;;;;;;10.50;6.05;;;;;;;;;;5019992;28;20107;-85
2023/10/09 12:06:12;;;;;;;10.10;5.85;;;;;;;;;;5028307;28;20400;-84
2023/10/09 12:08:40;;;;;;;10.38;6.32;;;;;;;;;;5038908;28;20092;-85
2023/10/09 12:11:11;;;;;;;7.93;5.63;;;;;;;;;;5028274;28;20041;-85
2023/10/09 12:13:39;;;;;;;7.38;5.97;;;;;;;;;;5049936;28;20077;-85
2023/10/09 12:16:09;;;;;;;8.13;6.05;;;;;;;;;;5049124;28;20087;-85
2023/10/09 12:18:40;;;;;;;8.77;6.35;;;;;;;;;;5027924;28;20056;-85
2023/10/09 12:21:08;;;;;;;14.20;6.82;;;;;;;;;;5046603;28;20119;-83
2023/10/09 12:23:35;;;;;;;10.95;7.35;;;;;;;;;;5030950;28;20057;-85
2023/10/09 12:26:03;;;;;;;8.93;6.28;;;;;;;;;;5031247;28;20103;-84
2023/10/09 12:28:34;;;;;;;8.32;7.10;;;;;;;;;;5015549;28;20445;-85
2023/10/09 12:31:02;;;;;;;12.52;6.72;;;;;;;;;;5030962;28;20418;-84
2023/10/09 12:33:30;;;;;;;11.30;7.13;;;;;;;;;;5027871;28;20526;-84
2023/10/09 12:36:01;;;;;;;11.88;7.95;;;;;;;;;;5026492;28;20421;-84
2023/10/09 12:38:32;;;;;;;10.40;7.78;;;;;;;;;;5026714;28;20045;-85
2023/10/09 12:41:08;;;;;;;10.73;7.40;;;;;;;;;;5026867;28;20083;-85
2023/10/09 12:43:39;;;;;;;11.68;7.32;;;;;;;;;;5019470;28;20088;-84
2023/10/09 12:46:07;;;;;;;11.35;7.28;;;;;;;;;;5026840;28;20057;-85
2023/10/09 12:48:35;;;;;;;8.82;7.45;;;;;;;;;;5027248;28;20045;-85
2023/10/09 12:51:06;;;;;;;9.40;7.25;;;;;;;;;;5027423;28;20521;-84
2023/10/09 12:53:33;;;;;;;8.05;6.60;;;;;;;;;;5021120;28;20441;-85
2023/10/09 12:56:01;;;;;;;12.75;8.10;;;;;;;;;;5028190;28;20552;-85
2023/10/09 12:58:28;;;;;;;10.88;7.80;;;;;;;;;;5030499;28;20055;-84
2023/10/09 13:00:55;;;;;;;11.43;8.20;;;;;;;;;;5031745;28;20059;-84
2023/10/09 13:03:28;;;;;;;10.40;8.15;;;;;;;;;;5028367;28;20085;-85
2023/10/09 13:05:55;;;;;;;7.83;7.00;;;;;;;;;;5028382;28;20097;-85
2023/10/09 13:08:36;;;;;;;7.82;6.18;;;;;;;;;;5028017;28;20053;-84
2023/10/09 13:11:10;;;;;;;14.30;7.10;;;;;;;;;;5028811;28;20068;-85
2023/10/09 13:13:40;;;;;;;6.57;5.88;;;;;;;;;;5021345;28;20056;-85
2023/10/09 13:16:24;;;;;;;11.23;6.03;;;;;;;;;;5028933;28;20099;-84
2023/10/09 13:18:56;;;;;;;7.10;5.72;;;;;;;;;;5046322;28;20064;-84
2023/10/09 13:21:26;;;;;;;8.00;6.28;;;;;;;;;;5031792;28;20477;-85
2023/10/09 13:23:57;;;;;;;10.02;6.47;;;;;;;;;;5035714;28;20075;-85
2023/10/09 13:26:28;;;;;;;7.88;5.63;;;;;;;;;;5035495;28;20494;-85
2023/10/09 13:29:01;;;;;;;7.57;6.07;;;;;;;;;;5027833;28;20136;-85
2023/10/09 13:31:32;;;;;;;6.93;5.80;;;;;;;;;;5021473;28;20049;-84
2023/10/09 13:34:01;;;;;;;8.73;6.30;;;;;;;;;;5048045;28;20098;-85
2023/10/09 13:38:56;;;;;;;8.30;6.28;;;;;;;;;;5042722;28;20551;-85
2023/10/09 13:41:29;;;;;;;8.93;6.63;;;;;;;;;;5021319;28;20127;-85
2023/10/09 13:43:59;;;;;;;10.77;7.15;;;;;;;;;;5022828;28;20053;-84
2023/10/09 13:46:27;;;;;;;10.73;7.78;;;;;;;;;;5029066;28;20045;-85
2023/10/09 13:48:54;;;;;;;10.88;6.95;;;;;;;;;;5029304;28;20490;-85
2023/10/09 13:51:23;;;;;;;15.75;8.10;;;;;;;;;;5025980;28;20464;-85
2023/10/09 13:53:51;;;;;;;11.57;7.35;;;;;;;;;;5025903;28;20556;-86
2023/10/09 13:56:19;;;;;;;12.90;7.32;;;;;;;;;;5025606;28;20050;-85
2023/10/09 13:58:47;;;;;;;7.57;6.78;;;;;;;;;;5026817;28;20045;-85
2023/10/09 14:01:26;;;;;;;10.55;6.72;;;;;;;;;;5028046;28;20053;-85
2023/10/09 14:03:57;;;;;;;12.55;8.02;;;;;;;;;;5023671;28;20053;-85
2023/10/09 14:06:33;;;;;;;10.18;7.13;;;;;;;;;;5029330;28;20048;-85
2023/10/09 14:09:05;;;;;;;16.60;8.57;;;;;;;;;;5030239;28;20126;-84
2023/10/09 14:11:32;;;;;;;13.60;8.32;;;;;;;;;;5017654;28;20052;-85
2023/10/09 14:14:00;;;;;;;13.00;8.88;;;;;;;;;;5026130;28;20050;-85
2023/10/09 14:16:42;;;;;;;12.15;8.32;;;;;;;;;;5037659;28;20099;-85
2023/10/09 14:19:13;;;;;;;12.50;8.57;;;;;;;;;;5027255;28;20041;-85
2023/10/09 14:21:41;;;;;;;12.13;7.63;;;;;;;;;;5032801;28;20053;-84
2023/10/09 14:24:19;;;;;;;11.57;8.15;;;;;;;;;;5028790;28;20082;-84
2023/10/09 14:26:46;;;;;;;10.27;8.98;;;;;;;;;;5034113;28;20057;-85
2023/10/09 14:29:17;;;;;;;11.88;8.30;;;;;;;;;;5033249;28;20490;-85
2023/10/09 14:31:49;;;;;;;12.88;8.35;;;;;;;;;;5030677;28;20110;-85
2023/10/09 14:34:17;;;;;;;18.75;9.70;;;;;;;;;;5030909;28;20057;-85
2023/10/09 14:36:44;;;;;;;12.10;9.23;;;;;;;;;;5032576;28;20367;-84
2023/10/09 14:39:18;;;;;;;9.32;8.23;;;;;;;;;;5049440;28;20049;-84
2023/10/09 14:41:45;;;;;;;10.40;8.25;;;;;;;;;;5028930;28;20149;-85
2023/10/09 14:44:16;;;;;;;12.70;9.77;;;;;;;;;;5028796;28;20049;-84
2023/10/09 14:46:44;;;;;;;13.90;8.50;;;;;;;;;;5046691;28;20076;-84
2023/10/09 14:49:14;;;;;;;13.23;8.48;;;;;;;;;;5029208;28;20053;-84
2023/10/09 14:51:44;;;;;;;10.02;8.52;;;;;;;;;;5026754;28;20556;-85
2023/10/09 14:54:15;;;;;;;12.15;8.75;;;;;;;;;;5030189;28;20049;-85
2023/10/09 14:56:42;;;;;;;12.85;8.80;;;;;;;;;;5034346;28;20132;-86
2023/10/09 14:59:11;;;;;;;12.65;8.68;;;;;;;;;;5033441;28;20052;-85
2023/10/09 15:01:38;;;;;;;10.93;8.68;;;;;;;;;;5048827;28;20103;-85
2023/10/09 15:04:07;;;;;;;19.65;9.25;;;;;;;;;;5030400;28;20414;-85
2023/10/09 15:06:38;;;;;;;15.73;8.43;;;;;;;;;;5030543;28;20179;-85
2023/10/09 15:09:09;;;;;;;13.73;8.48;;;;;;;;;;5030351;28;20421;-85
2023/10/09 15:11:40;;;;;;;10.23;8.43;;;;;;;;;;5023211;28;20453;-85
2023/10/09 15:14:08;;;;;;;14.35;8.95;;;;;;;;;;5029806;28;20045;-84
2023/10/09 15:16:38;;;;;;;18.75;9.35;;;;;;;;;;5028876;28;20080;-85
2023/10/09 15:19:09;;;;;;;17.25;8.80;;;;;;;;;;5018735;28;20479;-85
2023/10/09 15:21:43;;;;;;;9.70;8.10;;;;;;;;;;5033255;28;20498;-84
2023/10/09 15:24:20;;;;;;;17.80;8.35;;;;;;;;;;5041926;28;20106;-84
2023/10/09 15:26:53;;;;;;;10.27;8.15;;;;;;;;;;5033436;28;20051;-85
2023/10/09 15:29:23;;;;;;;12.85;9.30;;;;;;;;;;5030748;28;20056;-85
2023/10/09 15:31:50;;;;;;;11.02;8.60;;;;;;;;;;5030163;28;20056;-85
2023/10/09 15:34:20;;;;;;;12.18;9.60;;;;;;;;;;5028921;28;20133;-85
2023/10/09 15:36:48;;;;;;;11.00;8.55;;;;;;;;;;5026018;28;20068;-85
2023/10/09 15:39:19;;;;;;;11.13;9.25;;;;;;;;;;5032188;28;20486;-85
2023/10/09 15:41:47;;;;;;;11.82;9.13;;;;;;;;;;5029374;28;20489;-85
2023/10/09 15:44:14;;;;;;;10.30;8.70;;;;;;;;;;5029617;28;20057;-85
2023/10/09 15:46:45;;;;;;;10.77;8.43;;;;;;;;;;5030269;28;20132;-84
2023/10/09 15:49:13;;;;;;;11.38;8.32;;;;;;;;;;5048087;28;20049;-85
2023/10/09 15:51:43;;;;;;;12.25;9.93;;;;;;;;;;5051143;28;20045;-84
2023/10/09 15:54:12;;;;;;;10.68;9.55;;;;;;;;;;5032457;28;20067;-85
2023/10/09 15:56:41;;;;;;;16.35;10.10;;;;;;;;;;5029911;28;20041;-84
2023/10/09 15:59:17;;;;;;;10.48;9.38;;;;;;;;;;5047374;28;20050;-84
2023/10/09 16:01:44;;;;;;;12.25;9.13;;;;;;;;;;5013378;28;20060;-85
2023/10/09 16:04:11;;;;;;;10.77;9.13;;;;;;;;;;5031351;28;20049;-85
2023/10/09 16:06:41;;;;;;;13.70;9.32;;;;;;;;;;5033361;28;20057;-85
2023/10/09 16:09:14;;;;;;;10.38;8.93;;;;;;;;;;5034125;28;20063;-85
2023/10/09 16:11:43;;;;;;;10.95;8.70;;;;;;;;;;5031364;28;20457;-85
2023/10/09 16:14:15;;;;;;;18.65;11.25;;;;;;;;;;5032133;28;20111;-85
2023/10/09 16:16:43;;;;;;;19.35;15.38;;;;;;;;;;5050036;28;20046;-85
2023/10/09 16:19:12;;;;;;;13.82;9.60;;;;;;;;;;5029058;28;20569;-85
2023/10/09 16:21:39;;;;;;;18.83;14.50;;;;;;;;;;5028531;28;20129;-85
2023/10/09 16:24:09;;;;;;;13.07;8.88;;;;;;;;;;5036832;28;20049;-85
2023/10/09 16:26:41;;;;;;;15.63;10.02;;;;;;;;;;5028856;28;20174;-85
2023/10/09 16:29:09;;;;;;;19.45;16.80;;;;;;;;;;5028561;28;20084;-85
2023/10/09 16:31:37;;;;;;;12.95;10.80;;;;;;;;;;5031502;28;20528;-85
2023/10/09 16:34:08;;;;;;;13.77;9.45;;;;;;;;;;5032201;28;20045;-85
2023/10/09 16:36:35;;;;;;;15.70;13.68;;;;;;;;;;5028011;28;20047;-85
2023/10/09 16:39:03;;;;;;;17.25;11.20;;;;;;;;;;5035838;28;20049;-84
2023/10/09 16:41:37;;;;;;;17.45;13.52;;;;;;;;;;5018900;28;20063;-85
2023/10/09 16:44:09;;;;;;;14.05;10.77;;;;;;;;;;5028482;28;20483;-85
2023/10/09 16:46:39;;;;;;;16.98;11.05;;;;;;;;;;5031490;28;20056;-84
2023/10/09 16:49:08;;;;;;;12.23;9.40;;;;;;;;;;5030251;28;20103;-84
2023/10/09 16:51:36;;;;;;;12.88;9.73;;;;;;;;;;5022739;28;20048;-84
2023/10/09 16:54:04;;;;;;;10.15;8.90;;;;;;;;;;5029891;28;20056;-84